createdAt,value
2023-01-26T00:01:46.250Z,24.33
2023-01-26T00:04:14.248Z,23.77
2023-01-26T00:06:42.258Z,24.50
2023-01-26T00:09:15.552Z,23.02
2023-01-26T00:11:43.748Z,24.27
2023-01-26T00:14:11.640Z,23.88
2023-01-26T00:16:40.331Z,22.13
2023-01-26T00:19:09.338Z,23.55
2023-01-26T00:21:37.231Z,24.60
2023-01-26T00:24:05.748Z,23.25
2023-01-26T00:26:33.771Z,22.98
2023-01-26T00:29:02.554Z,21.65
2023-01-26T00:31:30.617Z,21.55
2023-01-26T00:34:00.672Z,21.52
2023-01-26T00:36:29.618Z,21.40
2023-01-26T00:38:57.846Z,22.00
2023-01-26T00:41:46.870Z,21.83
2023-01-26T00:44:16.654Z,23.35
2023-01-26T00:46:44.589Z,24.23
2023-01-26T00:49:12.496Z,22.55
2023-01-26T00:51:40.411Z,20.63
2023-01-26T00:54:08.304Z,19.85
2023-01-26T00:56:37.434Z,19.90
2023-01-26T00:59:07.038Z,21.02
2023-01-26T01:01:34.923Z,20.40
2023-01-26T01:04:02.839Z,19.38
2023-01-26T01:06:30.753Z,19.50
2023-01-26T01:08:58.694Z,19.58
2023-01-26T01:11:26.589Z,19.65
2023-01-26T01:13:54.503Z,18.38
2023-01-26T01:16:22.516Z,18.95
2023-01-26T01:18:54.864Z,19.88
2023-01-26T01:21:24.197Z,19.45
2023-01-26T01:26:22.422Z,20.73
2023-01-26T01:28:50.788Z,21.02
2023-01-26T01:31:18.751Z,19.52
2023-01-26T01:33:46.747Z,18.58
2023-01-26T01:36:17.287Z,19.25
2023-01-26T01:38:46.877Z,21.17
2023-01-26T01:41:17.068Z,19.27
2023-01-26T01:43:46.371Z,19.63
2023-01-26T01:46:41.329Z,20.33
2023-01-26T01:49:25.074Z,18.90
2023-01-26T01:52:11.365Z,19.95
2023-01-26T01:54:47.135Z,19.52
2023-01-26T01:57:28.740Z,19.42
2023-01-26T02:00:13.415Z,18.52
2023-01-26T02:02:45.303Z,19.08
2023-01-26T02:05:33.635Z,18.00
2023-01-26T02:08:02.685Z,18.17
2023-01-26T02:10:31.771Z,17.40
2023-01-26T02:13:01.899Z,18.27
2023-01-26T02:15:31.769Z,17.23
2023-01-26T02:18:04.963Z,17.90
2023-01-26T02:20:45.275Z,15.95
2023-01-26T02:23:32.942Z,15.13
2023-01-26T02:26:14.979Z,15.65
2023-01-26T02:28:44.995Z,14.75
2023-01-26T02:31:14.386Z,16.48
2023-01-26T02:33:43.901Z,15.63
2023-01-26T02:36:30.467Z,15.50
2023-01-26T02:39:24.971Z,16.33
2023-01-26T02:42:12.277Z,14.57
2023-01-26T02:44:43.140Z,14.55
2023-01-26T02:47:17.937Z,16.33
2023-01-26T02:49:54.011Z,15.63
2023-01-26T02:52:26.856Z,17.58
2023-01-26T02:55:25.950Z,17.23
2023-01-26T02:57:56.269Z,16.63
2023-01-26T03:00:26.697Z,16.83
2023-01-26T03:02:57.687Z,15.68
2023-01-26T03:05:28.156Z,15.82
2023-01-26T03:07:56.928Z,13.70
2023-01-26T03:10:30.718Z,14.88
2023-01-26T03:12:58.716Z,14.80
2023-01-26T03:15:53.390Z,14.35
2023-01-26T03:18:43.116Z,14.85
2023-01-26T03:21:33.410Z,14.27
2023-01-26T03:24:20.947Z,14.18
2023-01-26T03:27:08.990Z,15.00
2023-01-26T03:29:40.523Z,13.50
2023-01-26T03:32:08.471Z,13.88
2023-01-26T03:34:36.600Z,13.52
2023-01-26T03:37:06.140Z,14.65
2023-01-26T03:40:03.317Z,14.75
2023-01-26T03:42:50.295Z,12.75
2023-01-26T03:45:36.780Z,13.45
2023-01-26T03:48:25.195Z,13.82
2023-01-26T03:51:11.667Z,13.75
2023-01-26T03:54:01.508Z,13.52
2023-01-26T03:56:33.497Z,13.07
2023-01-26T03:59:09.684Z,13.38
2023-01-26T04:01:42.255Z,14.35
2023-01-26T04:04:30.619Z,12.85
2023-01-26T04:07:17.192Z,14.00
2023-01-26T04:09:50.444Z,14.82
2023-01-26T04:12:18.395Z,14.93
2023-01-26T04:15:17.194Z,15.43
2023-01-26T04:18:03.682Z,13.20
2023-01-26T04:20:50.145Z,14.25
2023-01-26T04:23:21.322Z,15.93
2023-01-26T04:25:54.535Z,13.63
2023-01-26T04:28:24.988Z,15.27
2023-01-26T04:30:53.277Z,14.80
2023-01-26T04:33:21.526Z,15.43
2023-01-26T04:35:50.498Z,15.07
2023-01-26T04:38:18.476Z,14.45
2023-01-26T04:40:46.441Z,12.68
2023-01-26T04:43:14.371Z,15.38
2023-01-26T04:45:42.800Z,14.45
2023-01-26T04:48:10.739Z,14.25
2023-01-26T04:50:38.769Z,13.93
2023-01-26T04:53:07.130Z,14.25
2023-01-26T04:55:35.032Z,14.30
2023-01-26T04:58:03.942Z,13.50
2023-01-26T05:00:32.143Z,13.50
2023-01-26T05:03:01.348Z,14.30
2023-01-26T05:05:29.735Z,16.63
2023-01-26T05:07:57.702Z,21.02
2023-01-26T05:10:28.207Z,20.77
2023-01-26T05:13:17.892Z,21.50
2023-01-26T05:16:08.117Z,21.08
2023-01-26T05:18:47.169Z,21.17
2023-01-26T05:21:38.159Z,21.88
2023-01-26T05:24:07.387Z,22.30
2023-01-26T05:27:10.368Z,23.08
2023-01-26T05:29:43.034Z,25.10
2023-01-26T05:32:11.022Z,23.60
2023-01-26T05:34:39.132Z,21.77
2023-01-26T05:37:07.630Z,26.23
2023-01-26T05:39:36.748Z,22.08
2023-01-26T05:42:06.820Z,22.00
2023-01-26T05:44:55.071Z,22.05
2023-01-26T05:47:24.183Z,21.67
2023-01-26T05:49:52.849Z,19.90
2023-01-26T05:52:27.776Z,22.10
2023-01-26T05:54:55.751Z,22.42
2023-01-26T05:57:24.930Z,26.20
2023-01-26T06:00:00.047Z,23.75
2023-01-26T06:02:28.468Z,23.90
2023-01-26T06:04:56.715Z,23.70
2023-01-26T06:07:24.640Z,20.83
2023-01-26T06:10:11.301Z,19.42
2023-01-26T06:13:08.757Z,18.60
2023-01-26T06:15:45.112Z,17.48
2023-01-26T06:18:13.604Z,18.23
2023-01-26T06:20:49.220Z,18.02
2023-01-26T06:23:17.230Z,19.08
2023-01-26T06:25:46.893Z,19.05
2023-01-26T06:28:15.098Z,18.40
2023-01-26T06:30:43.914Z,19.45
2023-01-26T06:33:13.672Z,18.85
2023-01-26T06:35:44.211Z,18.65
2023-01-26T06:38:16.693Z,20.17
2023-01-26T06:40:45.607Z,17.38
2023-01-26T06:43:13.538Z,17.60
2023-01-26T06:45:43.165Z,18.08
2023-01-26T06:48:11.235Z,17.50
2023-01-26T06:50:41.293Z,18.77
2023-01-26T06:53:27.418Z,15.90
2023-01-26T06:56:22.383Z,16.75
2023-01-26T06:59:00.477Z,19.48
2023-01-26T07:01:52.444Z,18.15
2023-01-26T07:04:20.367Z,17.80
2023-01-26T07:06:48.256Z,17.65
2023-01-26T07:09:16.203Z,20.20
2023-01-26T07:11:44.162Z,19.73
2023-01-26T07:14:12.086Z,18.33
2023-01-26T07:16:40.067Z,18.52
2023-01-26T07:19:08.996Z,17.95
2023-01-26T07:21:37.233Z,18.35
2023-01-26T07:24:05.462Z,18.65
2023-01-26T07:26:33.391Z,19.45
2023-01-26T07:29:01.356Z,18.80
2023-01-26T07:31:29.375Z,16.77
2023-01-26T07:33:57.392Z,17.30
2023-01-26T07:36:25.318Z,16.50
2023-01-26T07:38:53.236Z,17.90
2023-01-26T07:41:21.177Z,19.45
2023-01-26T07:43:51.125Z,19.52
2023-01-26T07:46:20.438Z,19.10
2023-01-26T07:48:48.380Z,18.70
2023-01-26T07:51:16.286Z,18.90
2023-01-26T07:53:45.134Z,19.70
2023-01-26T07:56:15.600Z,17.08
2023-01-26T07:58:43.849Z,16.40
2023-01-26T08:01:14.376Z,16.15
2023-01-26T08:03:43.240Z,17.35
2023-01-26T08:06:13.139Z,17.65
2023-01-26T08:08:42.999Z,16.23
2023-01-26T08:11:15.835Z,15.13
2023-01-26T08:13:48.037Z,15.10
2023-01-26T08:16:16.242Z,14.90
2023-01-26T08:18:46.346Z,14.18
2023-01-26T08:21:15.914Z,14.27
2023-01-26T08:23:44.207Z,13.13
2023-01-26T08:26:14.595Z,12.50
2023-01-26T08:28:42.718Z,12.57
2023-01-26T08:31:13.455Z,14.60
2023-01-26T08:33:43.443Z,13.18
2023-01-26T08:36:14.623Z,12.88
2023-01-26T08:38:43.384Z,9.95
2023-01-26T08:41:12.089Z,9.57
2023-01-26T08:43:40.433Z,9.80
2023-01-26T08:46:08.798Z,10.45
2023-01-26T08:48:37.032Z,9.70
2023-01-26T08:51:06.483Z,11.30
2023-01-26T08:53:35.972Z,10.75
2023-01-26T08:56:08.638Z,11.10
2023-01-26T08:58:37.559Z,11.68
2023-01-26T09:01:16.508Z,11.77
2023-01-26T09:03:45.712Z,12.95
2023-01-26T09:06:15.741Z,13.23
2023-01-26T09:08:43.689Z,13.80
2023-01-26T09:11:11.994Z,13.05
2023-01-26T09:13:44.217Z,13.73
2023-01-26T09:16:21.041Z,10.80
2023-01-26T09:18:53.194Z,9.85
2023-01-26T09:21:21.992Z,10.93
2023-01-26T09:23:49.873Z,10.80
2023-01-26T09:26:17.832Z,10.50
2023-01-26T09:28:45.767Z,11.15
2023-01-26T09:31:13.967Z,11.15
2023-01-26T09:33:44.057Z,11.85
2023-01-26T09:36:13.472Z,12.02
2023-01-26T09:38:41.588Z,13.77
2023-01-26T09:41:31.278Z,13.70
2023-01-26T09:44:05.553Z,14.63
2023-01-26T09:47:08.314Z,14.07
2023-01-26T09:49:49.426Z,12.45
2023-01-26T09:52:28.710Z,13.10
2023-01-26T09:55:00.492Z,11.05
2023-01-26T09:57:48.950Z,12.15
2023-01-26T10:00:29.735Z,12.15
2023-01-26T10:03:34.235Z,14.57
2023-01-26T10:06:25.165Z,14.13
2023-01-26T10:09:22.596Z,12.05
2023-01-26T10:11:55.930Z,12.70
2023-01-26T10:14:34.863Z,12.10
2023-01-26T10:17:06.252Z,12.65
2023-01-26T10:19:45.284Z,11.73
2023-01-26T10:22:23.507Z,13.13
2023-01-26T10:25:00.630Z,13.18
2023-01-26T10:27:30.564Z,15.15
2023-01-26T10:29:58.479Z,14.73
2023-01-26T10:32:26.860Z,14.40
2023-01-26T10:34:55.202Z,15.65
2023-01-26T10:37:30.790Z,15.35
2023-01-26T10:40:05.167Z,16.05
2023-01-26T10:42:35.123Z,15.10
2023-01-26T10:45:24.216Z,14.70
2023-01-26T10:48:17.301Z,15.65
2023-01-26T10:50:46.193Z,14.23
2023-01-26T10:53:25.871Z,14.55
2023-01-26T10:56:16.019Z,14.57
2023-01-26T10:58:47.060Z,15.45
2023-01-26T11:01:17.619Z,14.63
2023-01-26T11:04:01.542Z,15.23
2023-01-26T11:06:34.207Z,13.35
2023-01-26T11:09:19.277Z,15.32
2023-01-26T11:12:07.126Z,15.25
2023-01-26T11:14:35.864Z,17.15
2023-01-26T11:17:26.286Z,19.50
2023-01-26T11:20:15.896Z,15.90
2023-01-26T11:22:56.630Z,15.65
2023-01-26T11:25:33.426Z,14.70
2023-01-26T11:28:17.388Z,15.15
2023-01-26T11:31:05.786Z,14.35
2023-01-26T11:33:45.736Z,16.40
2023-01-26T11:36:35.541Z,15.73
2023-01-26T11:39:29.772Z,15.65
2023-01-26T11:42:31.107Z,13.75
2023-01-26T11:45:19.231Z,13.70
2023-01-26T11:48:14.315Z,13.90
2023-01-26T11:51:06.978Z,14.35
2023-01-26T11:53:40.577Z,12.75
2023-01-26T11:56:21.011Z,14.63
2023-01-26T11:59:01.358Z,15.57
2023-01-26T12:01:47.387Z,15.18
2023-01-26T12:04:23.778Z,17.42
2023-01-26T12:07:07.822Z,15.00
2023-01-26T12:09:49.581Z,15.57
2023-01-26T12:12:44.464Z,13.38
2023-01-26T12:15:18.683Z,12.60
2023-01-26T12:18:06.614Z,13.27
2023-01-26T12:20:42.373Z,14.20
2023-01-26T12:23:10.205Z,14.23
2023-01-26T12:25:46.128Z,14.73
2023-01-26T12:28:38.373Z,15.85
2023-01-26T12:31:21.913Z,15.27
2023-01-26T12:33:53.229Z,16.05
2023-01-26T12:39:01.604Z,16.63
2023-01-26T12:41:56.269Z,16.95
2023-01-26T12:44:33.511Z,16.23
2023-01-26T12:47:06.326Z,17.30
2023-01-26T12:49:50.934Z,15.60
2023-01-26T12:52:24.735Z,16.63
2023-01-26T12:55:11.247Z,17.63
2023-01-26T12:57:45.330Z,16.45
2023-01-26T13:00:30.854Z,16.60
2023-01-26T13:03:05.624Z,17.13
2023-01-26T13:05:37.094Z,19.30
2023-01-26T13:08:33.061Z,18.80
2023-01-26T13:11:07.668Z,17.30
2023-01-26T13:13:56.886Z,18.30
2023-01-26T13:16:24.745Z,18.17
2023-01-26T13:18:57.256Z,18.40
2023-01-26T13:21:37.181Z,18.05
2023-01-26T13:24:25.128Z,18.98
2023-01-26T13:26:58.679Z,18.88
2023-01-26T13:29:26.552Z,15.95
2023-01-26T13:31:56.209Z,15.80
2023-01-26T13:34:46.520Z,16.15
2023-01-26T13:37:39.867Z,15.50
2023-01-26T13:40:20.211Z,17.48
2023-01-26T13:42:56.944Z,17.33
2023-01-26T13:45:34.920Z,15.00
2023-01-26T13:48:06.333Z,14.95
2023-01-26T13:50:41.719Z,15.52
2023-01-26T13:53:34.517Z,15.30
2023-01-26T13:56:04.563Z,13.73
2023-01-26T13:58:33.190Z,13.30
2023-01-26T14:01:07.638Z,13.45
2023-01-26T14:03:35.756Z,12.85
2023-01-26T14:06:06.398Z,12.90
2023-01-26T14:08:34.626Z,13.13
2023-01-26T14:11:05.600Z,13.95
2023-01-26T14:13:40.124Z,13.13
2023-01-26T14:16:09.211Z,14.82
2023-01-26T14:18:37.206Z,14.70
2023-01-26T14:21:18.324Z,14.82
2023-01-26T14:23:46.271Z,15.35
2023-01-26T14:26:22.155Z,14.60
2023-01-26T14:28:50.127Z,13.35
2023-01-26T14:31:24.568Z,13.25
2023-01-26T14:33:58.452Z,12.45
2023-01-26T14:36:29.339Z,13.13
2023-01-26T14:38:57.940Z,13.05
2023-01-26T14:41:35.395Z,13.82
2023-01-26T14:44:05.118Z,15.27
2023-01-26T14:46:54.289Z,15.75
2023-01-26T14:49:43.998Z,16.10
2023-01-26T14:52:25.321Z,15.50
2023-01-26T14:55:09.870Z,17.38
2023-01-26T14:57:37.890Z,16.17
2023-01-26T15:00:11.273Z,16.42
2023-01-26T15:02:45.137Z,15.45
2023-01-26T15:05:22.543Z,18.20
2023-01-26T15:08:03.931Z,18.23
2023-01-26T15:13:11.120Z,14.07
2023-01-26T15:15:49.556Z,16.38
2023-01-26T15:18:21.939Z,21.42
2023-01-26T15:21:21.218Z,22.77
2023-01-26T15:23:54.157Z,24.75
2023-01-26T15:26:32.282Z,21.63
2023-01-26T15:29:04.388Z,20.67
2023-01-26T15:31:43.684Z,20.85
2023-01-26T15:34:33.255Z,17.88
2023-01-26T15:37:02.617Z,15.48
2023-01-26T15:39:31.345Z,16.10
2023-01-26T15:42:29.000Z,15.95
2023-01-26T15:44:58.452Z,15.13
2023-01-26T15:47:26.936Z,15.48
2023-01-26T15:49:54.859Z,14.88
2023-01-26T15:52:26.908Z,15.63
2023-01-26T15:54:55.098Z,15.15
2023-01-26T15:57:23.106Z,15.55
2023-01-26T15:59:51.058Z,16.13
2023-01-26T16:02:21.251Z,16.77
2023-01-26T16:04:49.765Z,15.85
2023-01-26T16:07:19.680Z,16.00
2023-01-26T16:09:49.873Z,18.10
2023-01-26T16:12:30.872Z,17.58
2023-01-26T16:15:00.424Z,16.48
2023-01-26T16:17:28.877Z,16.55
2023-01-26T16:19:56.779Z,16.52
2023-01-26T16:22:24.704Z,20.20
2023-01-26T16:24:55.835Z,19.25
2023-01-26T16:27:23.924Z,17.27
2023-01-26T16:29:58.262Z,23.98
2023-01-26T16:32:30.551Z,24.63
2023-01-26T16:34:58.565Z,16.65
2023-01-26T16:37:26.532Z,15.52
2023-01-26T16:39:54.465Z,13.75
2023-01-26T16:42:22.878Z,13.95
2023-01-26T16:44:51.183Z,14.43
2023-01-26T16:47:19.051Z,15.13
2023-01-26T16:49:46.983Z,16.90
2023-01-26T16:52:14.906Z,16.98
2023-01-26T16:54:42.862Z,17.88
2023-01-26T16:57:10.775Z,18.08
2023-01-26T16:59:38.702Z,16.30
2023-01-26T17:02:06.769Z,18.60
2023-01-26T17:04:34.754Z,18.20
2023-01-26T17:07:02.722Z,19.13
2023-01-26T17:09:31.251Z,18.45
2023-01-26T17:11:59.103Z,17.35
2023-01-26T17:14:28.385Z,18.10
2023-01-26T17:16:56.277Z,22.83
2023-01-26T17:19:24.258Z,20.83
2023-01-26T17:21:52.347Z,18.13
2023-01-26T17:24:20.365Z,17.13
2023-01-26T17:26:48.342Z,15.18
2023-01-26T17:29:16.264Z,14.35
2023-01-26T17:31:45.045Z,16.58
2023-01-26T17:34:13.117Z,14.85
2023-01-26T17:36:40.966Z,17.27
2023-01-26T17:39:10.929Z,16.52
2023-01-26T17:41:39.053Z,14.93
2023-01-26T17:47:20.227Z,14.90
2023-01-26T17:49:51.514Z,14.93
2023-01-26T17:52:21.351Z,13.85
2023-01-26T17:54:49.543Z,15.23
2023-01-26T17:57:17.458Z,14.90
2023-01-26T17:59:45.451Z,14.52
2023-01-26T18:02:13.552Z,14.02
2023-01-26T18:04:41.458Z,14.82
2023-01-26T18:07:09.371Z,14.25
2023-01-26T18:09:37.266Z,13.60
2023-01-26T18:12:05.351Z,14.88
2023-01-26T18:14:33.243Z,15.65
2023-01-26T18:17:01.124Z,14.13
2023-01-26T18:19:29.092Z,13.75
2023-01-26T18:21:57.050Z,15.02
2023-01-26T18:24:25.003Z,14.80
2023-01-26T18:26:52.975Z,13.35
2023-01-26T18:29:20.860Z,13.75
2023-01-26T18:31:49.237Z,12.82
2023-01-26T18:34:17.266Z,11.48
2023-01-26T18:36:45.156Z,10.82
2023-01-26T18:39:15.743Z,9.20
2023-01-26T18:41:44.449Z,9.60
2023-01-26T18:44:12.573Z,10.23
2023-01-26T18:46:40.652Z,9.13
2023-01-26T18:49:08.508Z,10.10
2023-01-26T18:51:37.093Z,10.43
2023-01-26T18:54:06.774Z,11.00
2023-01-26T18:56:34.832Z,9.95
2023-01-26T18:59:02.704Z,9.82
2023-01-26T19:01:30.697Z,10.57
2023-01-26T19:03:59.867Z,10.38
2023-01-26T19:06:29.568Z,10.68
2023-01-26T19:09:01.394Z,9.40
2023-01-26T19:11:34.422Z,10.20
2023-01-26T19:14:09.506Z,9.93
2023-01-26T19:16:38.109Z,9.98
2023-01-26T19:19:06.308Z,9.85
2023-01-26T19:21:34.444Z,10.27
2023-01-26T19:24:08.693Z,9.93
2023-01-26T19:26:36.740Z,9.95
2023-01-26T19:29:05.247Z,9.63
2023-01-26T19:31:33.812Z,9.85
2023-01-26T19:34:03.800Z,9.73
2023-01-26T19:36:33.557Z,8.77
2023-01-26T19:39:02.652Z,9.00
2023-01-26T19:41:31.167Z,8.70
2023-01-26T19:43:59.078Z,9.05
2023-01-26T19:46:26.983Z,10.57
2023-01-26T19:48:54.948Z,9.70
2023-01-26T19:51:25.969Z,8.88
2023-01-26T19:53:59.240Z,8.02
2023-01-26T19:56:30.431Z,8.07
2023-01-26T19:59:00.869Z,7.35
2023-01-26T20:01:30.619Z,7.47
2023-01-26T20:04:01.588Z,8.27
2023-01-26T20:06:33.071Z,7.00
2023-01-26T20:09:01.979Z,6.32
2023-01-26T20:11:30.785Z,6.38
2023-01-26T20:14:03.059Z,6.10
2023-01-26T20:16:31.930Z,6.32
2023-01-26T20:19:01.550Z,6.03
2023-01-26T20:21:30.423Z,6.05
2023-01-26T20:24:04.659Z,6.47
2023-01-26T20:26:33.139Z,6.00
2023-01-26T20:29:01.466Z,7.18
2023-01-26T20:31:29.757Z,6.70
2023-01-26T20:33:59.508Z,6.82
2023-01-26T20:36:29.665Z,6.00
2023-01-26T20:38:57.703Z,6.45
2023-01-26T20:41:30.053Z,6.30
2023-01-26T20:44:02.014Z,6.82
2023-01-26T20:46:33.551Z,6.57
2023-01-26T20:49:02.311Z,6.20
2023-01-26T20:51:36.737Z,7.20
2023-01-26T20:54:07.672Z,7.18
2023-01-26T20:56:36.697Z,8.02
2023-01-26T20:59:05.507Z,8.00
2023-01-26T21:01:37.536Z,8.00
2023-01-26T21:04:06.626Z,7.82
2023-01-26T21:06:34.973Z,7.32
2023-01-26T21:09:03.182Z,7.80
2023-01-26T21:11:32.378Z,7.40
2023-01-26T21:14:04.366Z,7.70
2023-01-26T21:16:37.212Z,7.72
2023-01-26T21:19:05.197Z,8.07
2023-01-26T21:21:33.331Z,8.15
2023-01-26T21:24:01.424Z,8.35
2023-01-26T21:26:33.943Z,7.97
2023-01-26T21:29:01.975Z,7.28
2023-01-26T21:31:32.693Z,7.97
2023-01-26T21:34:01.729Z,8.07
2023-01-26T21:36:31.938Z,7.55
2023-01-26T21:39:01.255Z,7.60
2023-01-26T21:41:50.823Z,7.22
2023-01-26T21:44:23.006Z,8.35
2023-01-26T21:46:55.227Z,7.75
2023-01-26T21:49:25.238Z,7.72
2023-01-26T21:52:20.972Z,7.60
2023-01-26T21:54:51.844Z,8.32
2023-01-26T21:57:39.265Z,9.05
2023-01-26T22:00:07.916Z,8.75
2023-01-26T22:02:35.830Z,9.32
2023-01-26T22:05:04.895Z,11.00
2023-01-26T22:07:35.809Z,11.82
2023-01-26T22:10:07.335Z,9.52
2023-01-26T22:12:36.745Z,8.90
2023-01-26T22:15:06.731Z,8.45
2023-01-26T22:17:34.882Z,8.80
2023-01-26T22:20:03.391Z,8.70
2023-01-26T22:22:32.375Z,7.90
2023-01-26T22:25:01.204Z,8.20
2023-01-26T22:27:34.549Z,8.35
2023-01-26T22:30:06.064Z,8.32
2023-01-26T22:32:38.082Z,8.07
2023-01-26T22:35:06.594Z,8.23
2023-01-26T22:37:35.619Z,8.30
2023-01-26T22:40:04.169Z,9.05
2023-01-26T22:42:32.393Z,8.70
2023-01-26T22:45:01.024Z,7.88
2023-01-26T22:47:30.549Z,8.32
2023-01-26T22:49:58.899Z,8.55
2023-01-26T22:52:30.041Z,8.88
2023-01-26T22:54:58.827Z,8.50
2023-01-26T22:57:27.357Z,8.95
2023-01-26T22:59:56.627Z,8.50
2023-01-26T23:02:25.147Z,8.35
2023-01-26T23:04:53.568Z,9.30
2023-01-26T23:07:21.496Z,8.00
2023-01-26T23:09:49.413Z,8.00
2023-01-26T23:12:17.666Z,9.00
2023-01-26T23:14:45.966Z,8.48
2023-01-26T23:17:14.066Z,10.05
2023-01-26T23:19:42.778Z,9.63
2023-01-26T23:22:10.671Z,10.45
2023-01-26T23:24:41.757Z,9.57
2023-01-26T23:29:38.755Z,10.23
2023-01-26T23:32:08.072Z,11.02
2023-01-26T23:34:42.115Z,10.32
2023-01-26T23:39:38.595Z,10.05
2023-01-26T23:42:06.585Z,10.30
2023-01-26T23:44:34.476Z,10.80
2023-01-26T23:47:02.470Z,10.75
2023-01-26T23:49:30.446Z,11.05
2023-01-26T23:51:58.387Z,10.65
2023-01-26T23:54:26.326Z,10.45
2023-01-26T23:56:54.239Z,11.00
2023-01-26T23:59:22.407Z,10.30
